sensor_id;sensor_type;location;lat;lon;timestamp;pressure;altitude;pressure_sealevel;temperature;humidity
21838;BME280;11081;45.946;6.140;2024-02-23T00:01:20;93881.19;;;7.13;100.00
21838;BME280;11081;45.946;6.140;2024-02-23T00:03:50;93890.53;;;7.14;100.00
21838;BME280;11081;45.946;6.140;2024-02-23T00:06:18;93888.97;;;7.13;100.00
21838;BME280;11081;45.946;6.140;2024-02-23T00:08:46;93888.19;;;7.01;100.00
21838;BME280;11081;45.946;6.140;2024-02-23T00:11:14;93901.06;;;6.96;100.00
21838;BME280;11081;45.946;6.140;2024-02-23T00:13:42;93904.44;;;6.96;100.00
21838;BME280;11081;45.946;6.140;2024-02-23T00:16:10;93910.97;;;6.99;100.00
21838;BME280;11081;45.946;6.140;2024-02-23T00:18:39;93918.06;;;7.03;100.00
21838;BME280;11081;45.946;6.140;2024-02-23T00:21:08;93903.75;;;7.01;99.55
21838;BME280;11081;45.946;6.140;2024-02-23T00:23:36;93902.63;;;6.97;99.36
21838;BME280;11081;45.946;6.140;2024-02-23T00:26:04;93896.81;;;6.90;99.48
21838;BME280;11081;45.946;6.140;2024-02-23T00:28:32;93888.56;;;6.81;98.98
21838;BME280;11081;45.946;6.140;2024-02-23T00:31:00;93892.97;;;6.81;98.26
21838;BME280;11081;45.946;6.140;2024-02-23T00:33:28;93893.53;;;6.83;98.36
21838;BME280;11081;45.946;6.140;2024-02-23T00:35:57;93890.94;;;6.83;99.13
21838;BME280;11081;45.946;6.140;2024-02-23T00:38:26;93886.31;;;6.85;97.96
21838;BME280;11081;45.946;6.140;2024-02-23T00:40:54;93892.97;;;6.81;97.40
21838;BME280;11081;45.946;6.140;2024-02-23T00:43:22;93883.06;;;6.78;97.69
21838;BME280;11081;45.946;6.140;2024-02-23T00:45:50;93890.94;;;6.83;96.83
21838;BME280;11081;45.946;6.140;2024-02-23T00:48:18;93884.50;;;6.85;96.30
21838;BME280;11081;45.946;6.140;2024-02-23T00:50:46;93885.28;;;6.86;95.98
21838;BME280;11081;45.946;6.140;2024-02-23T00:53:14;93876.75;;;6.73;95.98
21838;BME280;11081;45.946;6.140;2024-02-23T00:55:46;93869.31;;;6.65;97.55
21838;BME280;11081;45.946;6.140;2024-02-23T00:58:14;93876.34;;;6.53;97.97
21838;BME280;11081;45.946;6.140;2024-02-23T01:00:42;93879.63;;;6.49;98.41
21838;BME280;11081;45.946;6.140;2024-02-23T01:03:11;93882.63;;;6.57;97.35
21838;BME280;11081;45.946;6.140;2024-02-23T01:05:39;93870.78;;;6.61;97.60
21838;BME280;11081;45.946;6.140;2024-02-23T01:08:09;93868.19;;;6.61;96.94
21838;BME280;11081;45.946;6.140;2024-02-23T01:10:37;93870.91;;;6.66;97.04
21838;BME280;11081;45.946;6.140;2024-02-23T01:13:07;93859.63;;;6.72;96.33
21838;BME280;11081;45.946;6.140;2024-02-23T01:15:35;93857.38;;;6.64;97.37
21838;BME280;11081;45.946;6.140;2024-02-23T01:18:04;93839.81;;;6.66;97.26
21838;BME280;11081;45.946;6.140;2024-02-23T01:20:34;93837.78;;;6.68;98.36
21838;BME280;11081;45.946;6.140;2024-02-23T01:23:02;93835.06;;;6.63;96.82
21838;BME280;11081;45.946;6.140;2024-02-23T01:25:30;93848.16;;;6.68;96.39
21838;BME280;11081;45.946;6.140;2024-02-23T01:28:01;93833.81;;;6.66;97.28
21838;BME280;11081;45.946;6.140;2024-02-23T01:30:31;93840.59;;;6.67;95.06
21838;BME280;11081;45.946;6.140;2024-02-23T01:32:59;93831.03;;;6.67;94.90
21838;BME280;11081;45.946;6.140;2024-02-23T01:35:27;93828.75;;;6.59;95.49
21838;BME280;11081;45.946;6.140;2024-02-23T01:37:57;93819.56;;;6.52;98.66
21838;BME280;11081;45.946;6.140;2024-02-23T01:40:25;93829.47;;;6.43;100.00
21838;BME280;11081;45.946;6.140;2024-02-23T01:43:01;93807.63;;;6.39;99.60
21838;BME280;11081;45.946;6.140;2024-02-23T01:45:31;93820.66;;;6.44;100.00
21838;BME280;11081;45.946;6.140;2024-02-23T01:48:00;93810.16;;;6.62;98.62
21838;BME280;11081;45.946;6.140;2024-02-23T01:50:29;93806.00;;;6.61;98.91
21838;BME280;11081;45.946;6.140;2024-02-23T01:53:00;93806.16;;;6.43;99.55
21838;BME280;11081;45.946;6.140;2024-02-23T01:55:29;93780.19;;;6.15;99.23
21838;BME280;11081;45.946;6.140;2024-02-23T01:58:03;93768.94;;;5.97;99.60
21838;BME280;11081;45.946;6.140;2024-02-23T02:00:36;93760.38;;;5.85;100.00
21838;BME280;11081;45.946;6.140;2024-02-23T02:03:04;93743.94;;;5.91;100.00
21838;BME280;11081;45.946;6.140;2024-02-23T02:05:38;93750.47;;;6.05;100.00
21838;BME280;11081;45.946;6.140;2024-02-23T02:08:07;93757.00;;;5.96;100.00
21838;BME280;11081;45.946;6.140;2024-02-23T02:10:35;93763.59;;;5.57;100.00
21838;BME280;11081;45.946;6.140;2024-02-23T02:13:03;93771.75;;;5.19;100.00
21838;BME280;11081;45.946;6.140;2024-02-23T02:15:32;93767.03;;;5.16;100.00
21838;BME280;11081;45.946;6.140;2024-02-23T02:18:02;93784.09;;;5.17;100.00
21838;BME280;11081;45.946;6.140;2024-02-23T02:20:32;93760.31;;;5.38;100.00
21838;BME280;11081;45.946;6.140;2024-02-23T02:23:01;93745.97;;;5.66;100.00
21838;BME280;11081;45.946;6.140;2024-02-23T02:25:29;93736.59;;;5.53;100.00
21838;BME280;11081;45.946;6.140;2024-02-23T02:27:57;93730.84;;;5.39;100.00
21838;BME280;11081;45.946;6.140;2024-02-23T02:30:26;93723.22;;;5.44;100.00
21838;BME280;11081;45.946;6.140;2024-02-23T02:32:54;93724.56;;;5.59;100.00
21838;BME280;11081;45.946;6.140;2024-02-23T02:35:23;93717.59;;;5.71;100.00
21838;BME280;11081;45.946;6.140;2024-02-23T02:37:51;93709.38;;;5.74;100.00
21838;BME280;11081;45.946;6.140;2024-02-23T02:40:19;93698.34;;;5.78;100.00
21838;BME280;11081;45.946;6.140;2024-02-23T02:42:47;93699.59;;;5.76;99.48
21838;BME280;11081;45.946;6.140;2024-02-23T02:45:15;93695.78;;;5.67;98.82
21838;BME280;11081;45.946;6.140;2024-02-23T02:47:46;93703.63;;;5.72;98.56
21838;BME280;11081;45.946;6.140;2024-02-23T02:50:14;93705.44;;;5.60;98.92
21838;BME280;11081;45.946;6.140;2024-02-23T02:52:44;93696.22;;;5.64;100.00
21838;BME280;11081;45.946;6.140;2024-02-23T02:55:13;93690.47;;;5.73;99.65
21838;BME280;11081;45.946;6.140;2024-02-23T02:57:41;93686.53;;;5.71;99.34
21838;BME280;11081;45.946;6.140;2024-02-23T03:00:10;93681.38;;;5.71;98.96
21838;BME280;11081;45.946;6.140;2024-02-23T03:02:38;93680.44;;;5.77;98.74
21838;BME280;11081;45.946;6.140;2024-02-23T03:05:07;93674.38;;;5.83;99.13
21838;BME280;11081;45.946;6.140;2024-02-23T03:07:35;93671.66;;;5.78;98.15
21838;BME280;11081;45.946;6.140;2024-02-23T03:10:06;93668.53;;;5.76;98.56
21838;BME280;11081;45.946;6.140;2024-02-23T03:12:34;93676.97;;;5.71;98.80
21838;BME280;11081;45.946;6.140;2024-02-23T03:15:03;93665.84;;;5.71;99.10
21838;BME280;11081;45.946;6.140;2024-02-23T03:17:32;93671.66;;;5.78;99.13
21838;BME280;11081;45.946;6.140;2024-02-23T03:20:00;93670.56;;;5.74;98.36
21838;BME280;11081;45.946;6.140;2024-02-23T03:22:32;93662.91;;;5.56;97.46
21838;BME280;11081;45.946;6.140;2024-02-23T03:25:00;93661.81;;;5.51;98.19
21838;BME280;11081;45.946;6.140;2024-02-23T03:27:36;93650.34;;;5.47;98.03
21838;BME280;11081;45.946;6.140;2024-02-23T03:30:06;93658.66;;;5.49;98.29
21838;BME280;11081;45.946;6.140;2024-02-23T03:32:35;93658.66;;;5.49;98.13
21838;BME280;11081;45.946;6.140;2024-02-23T03:35:06;93652.47;;;5.50;98.75
21838;BME280;11081;45.946;6.140;2024-02-23T03:37:35;93659.13;;;5.46;98.89
21838;BME280;11081;45.946;6.140;2024-02-23T03:40:05;93657.53;;;5.45;98.65
21838;BME280;11081;45.946;6.140;2024-02-23T03:42:36;93650.78;;;5.44;98.94
21838;BME280;11081;45.946;6.140;2024-02-23T03:45:05;93646.28;;;5.51;98.67
21838;BME280;11081;45.946;6.140;2024-02-23T03:47:33;93637.50;;;5.53;98.78
21838;BME280;11081;45.946;6.140;2024-02-23T03:50:01;93642.22;;;5.56;98.03
21838;BME280;11081;45.946;6.140;2024-02-23T03:52:29;93633.91;;;5.54;97.87
21838;BME280;11081;45.946;6.140;2024-02-23T03:54:57;93636.38;;;5.48;98.72
21838;BME280;11081;45.946;6.140;2024-02-23T03:57:26;93628.41;;;5.50;98.38
21838;BME280;11081;45.946;6.140;2024-02-23T03:59:55;93626.50;;;5.45;97.61
21838;BME280;11081;45.946;6.140;2024-02-23T04:02:23;93617.41;;;5.43;98.28
21838;BME280;11081;45.946;6.140;2024-02-23T04:04:52;93620.63;;;5.38;98.53
21838;BME280;11081;45.946;6.140;2024-02-23T04:07:21;93620.22;;;5.41;98.78
21838;BME280;11081;45.946;6.140;2024-02-23T04:09:49;93622.22;;;5.39;98.86
21838;BME280;11081;45.946;6.140;2024-02-23T04:12:19;93623.34;;;5.43;98.36
21838;BME280;11081;45.946;6.140;2024-02-23T04:14:47;93617.03;;;5.39;98.36
21838;BME280;11081;45.946;6.140;2024-02-23T04:17:17;93609.88;;;5.41;98.63
21838;BME280;11081;45.946;6.140;2024-02-23T04:19:45;93606.69;;;5.39;97.98
21838;BME280;11081;45.946;6.140;2024-02-23T04:22:13;93603.53;;;5.37;97.13
21838;BME280;11081;45.946;6.140;2024-02-23T04:24:41;93604.34;;;5.38;97.26
21838;BME280;11081;45.946;6.140;2024-02-23T04:27:10;93603.81;;;5.24;96.79
21838;BME280;11081;45.946;6.140;2024-02-23T04:29:38;93598.41;;;5.14;97.65
21838;BME280;11081;45.946;6.140;2024-02-23T04:32:06;93593.22;;;5.14;96.52
21838;BME280;11081;45.946;6.140;2024-02-23T04:34:35;93592.09;;;5.10;97.43
21838;BME280;11081;45.946;6.140;2024-02-23T04:37:04;93591.97;;;5.16;96.97
21838;BME280;11081;45.946;6.140;2024-02-23T04:39:32;93603.56;;;5.14;97.00
21838;BME280;11081;45.946;6.140;2024-02-23T04:42:00;93611.22;;;5.09;96.89
21838;BME280;11081;45.946;6.140;2024-02-23T04:44:29;93614.03;;;5.07;97.02
21838;BME280;11081;45.946;6.140;2024-02-23T04:46:57;93597.72;;;5.07;97.75
21838;BME280;11081;45.946;6.140;2024-02-23T04:49:25;93597.28;;;5.10;98.50
21838;BME280;11081;45.946;6.140;2024-02-23T04:51:55;93603.56;;;5.14;98.11
21838;BME280;11081;45.946;6.140;2024-02-23T04:54:23;93596.28;;;5.23;96.86
21838;BME280;11081;45.946;6.140;2024-02-23T04:56:51;93601.88;;;5.19;96.89
21838;BME280;11081;45.946;6.140;2024-02-23T04:59:19;93591.97;;;5.16;96.78
21838;BME280;11081;45.946;6.140;2024-02-23T05:01:47;93581.31;;;5.13;97.05
21838;BME280;11081;45.946;6.140;2024-02-23T05:04:15;93582.88;;;5.14;97.26
21838;BME280;11081;45.946;6.140;2024-02-23T05:06:43;93578.16;;;5.11;97.21
21838;BME280;11081;45.946;6.140;2024-02-23T05:09:13;93572.66;;;5.07;97.47
21838;BME280;11081;45.946;6.140;2024-02-23T05:11:40;93580.53;;;5.12;97.90
21838;BME280;11081;45.946;6.140;2024-02-23T05:14:09;93575.03;;;5.09;97.89
21838;BME280;11081;45.946;6.140;2024-02-23T05:16:38;93584.34;;;5.10;98.33
21838;BME280;11081;45.946;6.140;2024-02-23T05:19:06;93585.38;;;5.09;98.33
21838;BME280;11081;45.946;6.140;2024-02-23T05:21:34;93585.38;;;5.09;98.18
21838;BME280;11081;45.946;6.140;2024-02-23T05:24:02;93584.00;;;4.95;98.23
21838;BME280;11081;45.946;6.140;2024-02-23T05:26:34;93591.09;;;4.87;98.49
21838;BME280;11081;45.946;6.140;2024-02-23T05:29:02;93591.78;;;4.83;99.17
21838;BME280;11081;45.946;6.140;2024-02-23T05:31:44;93595.94;;;4.84;97.24
21838;BME280;11081;45.946;6.140;2024-02-23T05:34:13;93595.25;;;4.88;97.29
21838;BME280;11081;45.946;6.140;2024-02-23T05:36:42;93591.66;;;4.89;96.60
21838;BME280;11081;45.946;6.140;2024-02-23T05:39:10;93588.97;;;4.84;96.58
21838;BME280;11081;45.946;6.140;2024-02-23T05:41:41;93592.56;;;4.83;96.31
21838;BME280;11081;45.946;6.140;2024-02-23T05:44:09;93597.72;;;4.83;96.72
21838;BME280;11081;45.946;6.140;2024-02-23T05:46:37;93596.03;;;4.89;97.13
21838;BME280;11081;45.946;6.140;2024-02-23T05:49:05;93594.34;;;4.95;97.79
21838;BME280;11081;45.946;6.140;2024-02-23T05:51:34;93598.97;;;5.04;98.45
21838;BME280;11081;45.946;6.140;2024-02-23T05:54:02;93601.34;;;5.06;99.25
21838;BME280;11081;45.946;6.140;2024-02-23T05:56:30;93597.28;;;5.10;98.69
21838;BME280;11081;45.946;6.140;2024-02-23T05:59:00;93592.09;;;5.10;97.98
21838;BME280;11081;45.946;6.140;2024-02-23T06:01:28;93593.00;;;5.04;98.83
21838;BME280;11081;45.946;6.140;2024-02-23T06:03:56;93590.88;;;5.01;98.48
21838;BME280;11081;45.946;6.140;2024-02-23T06:06:24;93598.19;;;5.04;98.47
21838;BME280;11081;45.946;6.140;2024-02-23T06:08:52;93588.31;;;5.01;98.85
21838;BME280;11081;45.946;6.140;2024-02-23T06:11:20;93599.06;;;4.98;99.34
21838;BME280;11081;45.946;6.140;2024-02-23T06:13:48;93595.81;;;5.02;99.89
21838;BME280;11081;45.946;6.140;2024-02-23T06:16:18;93599.31;;;5.08;99.34
21838;BME280;11081;45.946;6.140;2024-02-23T06:18:46;93596.38;;;5.04;99.82
21838;BME280;11081;45.946;6.140;2024-02-23T06:21:14;93598.41;;;5.14;100.00
21838;BME280;11081;45.946;6.140;2024-02-23T06:23:42;93601.78;;;5.26;98.89
21838;BME280;11081;45.946;6.140;2024-02-23T06:26:11;93590.41;;;5.27;99.35
21838;BME280;11081;45.946;6.140;2024-02-23T06:28:39;93595.03;;;5.25;98.77
21838;BME280;11081;45.946;6.140;2024-02-23T06:31:09;93600.19;;;5.25;98.62
21838;BME280;11081;45.946;6.140;2024-02-23T06:33:39;93596.69;;;5.31;99.01
21838;BME280;11081;45.946;6.140;2024-02-23T06:36:09;93603.81;;;5.24;98.78
21838;BME280;11081;45.946;6.140;2024-02-23T06:38:37;93602.44;;;5.33;98.25
21838;BME280;11081;45.946;6.140;2024-02-23T06:41:05;93601.31;;;5.29;97.76
21838;BME280;11081;45.946;6.140;2024-02-23T06:43:35;93605.38;;;5.25;98.09
21838;BME280;11081;45.946;6.140;2024-02-23T06:46:06;93601.44;;;5.23;98.91
21838;BME280;11081;45.946;6.140;2024-02-23T06:48:35;93599.09;;;5.21;98.97
21838;BME280;11081;45.946;6.140;2024-02-23T06:51:06;93606.38;;;5.24;99.13
21838;BME280;11081;45.946;6.140;2024-02-23T06:53:36;93605.38;;;5.25;99.54
21838;BME280;11081;45.946;6.140;2024-02-23T06:56:05;93619.31;;;5.24;99.64
21838;BME280;11081;45.946;6.140;2024-02-23T06:58:34;93611.78;;;5.23;100.00
21838;BME280;11081;45.946;6.140;2024-02-23T07:01:02;93617.38;;;5.19;99.53
21838;BME280;11081;45.946;6.140;2024-02-23T07:03:32;93620.88;;;5.25;100.00
21838;BME280;11081;45.946;6.140;2024-02-23T07:06:02;93630.00;;;5.28;99.84
21838;BME280;11081;45.946;6.140;2024-02-23T07:08:32;93616.59;;;5.42;100.00
21838;BME280;11081;45.946;6.140;2024-02-23T07:11:00;93609.88;;;5.41;99.90
21838;BME280;11081;45.946;6.140;2024-02-23T07:13:29;93610.75;;;5.35;99.75
21838;BME280;11081;45.946;6.140;2024-02-23T07:15:58;93615.59;;;5.32;99.52
21838;BME280;11081;45.946;6.140;2024-02-23T07:18:27;93615.72;;;5.25;100.00
21838;BME280;11081;45.946;6.140;2024-02-23T07:20:56;93623.22;;;5.38;98.46
21838;BME280;11081;45.946;6.140;2024-02-23T07:23:24;93622.53;;;5.55;98.22
21838;BME280;11081;45.946;6.140;2024-02-23T07:25:54;93629.28;;;5.56;97.81
21838;BME280;11081;45.946;6.140;2024-02-23T07:28:22;93616.34;;;5.56;98.00
21838;BME280;11081;45.946;6.140;2024-02-23T07:30:50;93616.34;;;5.56;98.17
21838;BME280;11081;45.946;6.140;2024-02-23T07:33:19;93622.06;;;5.58;98.81
21838;BME280;11081;45.946;6.140;2024-02-23T07:35:48;93617.03;;;5.63;97.81
21838;BME280;11081;45.946;6.140;2024-02-23T07:38:16;93615.66;;;5.72;97.15
21838;BME280;11081;45.946;6.140;2024-02-23T07:40:45;93612.13;;;5.78;95.79
21838;BME280;11081;45.946;6.140;2024-02-23T07:43:14;93617.69;;;5.70;96.25
21838;BME280;11081;45.946;6.140;2024-02-23T07:45:42;93622.84;;;5.70;96.80
21838;BME280;11081;45.946;6.140;2024-02-23T07:48:10;93625.53;;;5.75;96.13
21838;BME280;11081;45.946;6.140;2024-02-23T07:50:38;93620.81;;;5.72;96.88
21838;BME280;11081;45.946;6.140;2024-02-23T07:53:06;93619.00;;;5.84;96.09
21838;BME280;11081;45.946;6.140;2024-02-23T07:55:34;93620.69;;;5.90;96.69
21838;BME280;11081;45.946;6.140;2024-02-23T07:58:02;93633.53;;;5.85;98.06
21838;BME280;11081;45.946;6.140;2024-02-23T08:00:32;93627.22;;;5.81;97.23
21838;BME280;11081;45.946;6.140;2024-02-23T08:03:01;93624.28;;;5.89;97.39
21838;BME280;11081;45.946;6.140;2024-02-23T08:05:29;93617.66;;;5.93;98.23
21838;BME280;11081;45.946;6.140;2024-02-23T08:07:57;93619.53;;;5.98;97.69
21838;BME280;11081;45.946;6.140;2024-02-23T08:10:26;93617.19;;;5.96;96.74
21838;BME280;11081;45.946;6.140;2024-02-23T08:12:54;93621.91;;;5.99;98.18
21838;BME280;11081;45.946;6.140;2024-02-23T08:15:22;93619.44;;;6.04;96.96
21838;BME280;11081;45.946;6.140;2024-02-23T08:17:51;93604.53;;;6.11;96.68
21838;BME280;11081;45.946;6.140;2024-02-23T08:20:19;93613.97;;;6.18;95.28
21838;BME280;11081;45.946;6.140;2024-02-23T08:22:48;93607.22;;;6.17;95.15
21838;BME280;11081;45.946;6.140;2024-02-23T08:25:16;93610.91;;;6.21;95.57
21838;BME280;11081;45.946;6.140;2024-02-23T08:27:44;93607.41;;;6.27;95.83
21838;BME280;11081;45.946;6.140;2024-02-23T08:30:13;93615.25;;;6.32;95.03
21838;BME280;11081;45.946;6.140;2024-02-23T08:32:42;93624.53;;;6.28;95.71
21838;BME280;11081;45.946;6.140;2024-02-23T08:35:11;93617.22;;;6.25;95.83
21838;BME280;11081;45.946;6.140;2024-02-23T08:37:40;93611.72;;;6.38;96.01
21838;BME280;11081;45.946;6.140;2024-02-23T08:40:09;93617.94;;;6.37;95.05
21838;BME280;11081;45.946;6.140;2024-02-23T08:42:37;93614.94;;;6.45;95.84
21838;BME280;11081;45.946;6.140;2024-02-23T08:45:06;93609.66;;;6.52;94.18
21838;BME280;11081;45.946;6.140;2024-02-23T08:47:36;93601.66;;;6.70;93.47
21838;BME280;11081;45.946;6.140;2024-02-23T08:50:05;93604.16;;;6.82;92.71
21838;BME280;11081;45.946;6.140;2024-02-23T08:52:35;93607.31;;;6.84;92.65
21838;BME280;11081;45.946;6.140;2024-02-23T08:55:04;93596.06;;;6.95;91.76
21838;BME280;11081;45.946;6.140;2024-02-23T08:57:32;93602.44;;;7.04;91.12
21838;BME280;11081;45.946;6.140;2024-02-23T09:00:00;93595.97;;;7.07;91.01
21838;BME280;11081;45.946;6.140;2024-02-23T09:02:28;93604.00;;;7.05;91.34
21838;BME280;11081;45.946;6.140;2024-02-23T09:04:56;93605.56;;;7.06;91.03
21838;BME280;11081;45.946;6.140;2024-02-23T09:07:24;93599.44;;;7.12;90.05
21838;BME280;11081;45.946;6.140;2024-02-23T09:09:53;93597.53;;;7.24;89.78
21838;BME280;11081;45.946;6.140;2024-02-23T09:12:21;93596.03;;;7.28;89.23
21838;BME280;11081;45.946;6.140;2024-02-23T09:14:49;93602.25;;;7.27;89.48
21838;BME280;11081;45.946;6.140;2024-02-23T09:17:17;93597.06;;;7.27;89.29
21838;BME280;11081;45.946;6.140;2024-02-23T09:19:47;93589.19;;;7.22;89.74
21838;BME280;11081;45.946;6.140;2024-02-23T09:22:15;93589.06;;;7.29;88.93
21838;BME280;11081;45.946;6.140;2024-02-23T09:24:43;93586.22;;;7.30;87.84
21838;BME280;11081;45.946;6.140;2024-02-23T09:27:13;93589.50;;;7.26;88.53
21838;BME280;11081;45.946;6.140;2024-02-23T09:29:41;93584.22;;;7.38;89.20
21838;BME280;11081;45.946;6.140;2024-02-23T09:32:09;93583.69;;;7.36;88.16
21838;BME280;11081;45.946;6.140;2024-02-23T09:34:38;93573.91;;;7.43;88.20
21838;BME280;11081;45.946;6.140;2024-02-23T09:37:06;93574.22;;;7.46;87.87
21838;BME280;11081;45.946;6.140;2024-02-23T09:39:34;93565.72;;;7.51;87.31
21838;BME280;11081;45.946;6.140;2024-02-23T09:42:02;93570.28;;;7.44;86.82
21838;BME280;11081;45.946;6.140;2024-02-23T09:44:33;93569.69;;;7.37;86.50
21838;BME280;11081;45.946;6.140;2024-02-23T09:47:02;93577.53;;;7.42;87.07
21838;BME280;11081;45.946;6.140;2024-02-23T09:49:37;93570.78;;;7.41;86.17
21838;BME280;11081;45.946;6.140;2024-02-23T09:52:07;93572.03;;;7.38;86.36
21838;BME280;11081;45.946;6.140;2024-02-23T09:54:37;93565.72;;;7.51;87.65
21838;BME280;11081;45.946;6.140;2024-02-23T09:57:07;93562.69;;;7.59;85.37
21838;BME280;11081;45.946;6.140;2024-02-23T09:59:38;93551.97;;;7.50;84.87
21838;BME280;11081;45.946;6.140;2024-02-23T10:02:08;93561.13;;;7.58;85.23
21838;BME280;11081;45.946;6.140;2024-02-23T10:04:38;93562.81;;;7.69;84.96
21838;BME280;11081;45.946;6.140;2024-02-23T10:07:07;93558.22;;;7.76;83.84
21838;BME280;11081;45.946;6.140;2024-02-23T10:09:35;93554.59;;;7.77;82.97
21838;BME280;11081;45.946;6.140;2024-02-23T10:12:04;93554.47;;;7.67;81.71
21838;BME280;11081;45.946;6.140;2024-02-23T10:14:32;93550.75;;;7.58;82.15
21838;BME280;11081;45.946;6.140;2024-02-23T10:17:02;93547.47;;;7.68;82.61
21838;BME280;11081;45.946;6.140;2024-02-23T10:19:30;93542.53;;;7.66;81.34
21838;BME280;11081;45.946;6.140;2024-02-23T10:21:59;93544.72;;;7.74;78.97
21838;BME280;11081;45.946;6.140;2024-02-23T10:24:27;93540.59;;;7.78;78.83
21838;BME280;11081;45.946;6.140;2024-02-23T10:26:55;93531.78;;;7.79;79.04
21838;BME280;11081;45.946;6.140;2024-02-23T10:29:25;93536.47;;;7.82;78.08
21838;BME280;11081;45.946;6.140;2024-02-23T10:31:56;93537.47;;;7.76;77.58
21838;BME280;11081;45.946;6.140;2024-02-23T10:34:27;93528.50;;;7.67;78.89
21838;BME280;11081;45.946;6.140;2024-02-23T10:36:57;93529.19;;;7.79;79.10
21838;BME280;11081;45.946;6.140;2024-02-23T10:39:28;93529.22;;;7.84;78.02
21838;BME280;11081;45.946;6.140;2024-02-23T10:42:00;93522.09;;;7.97;77.78
21838;BME280;11081;45.946;6.140;2024-02-23T10:44:31;93517.59;;;8.14;78.15
21838;BME280;11081;45.946;6.140;2024-02-23T10:46:58;93517.66;;;8.24;77.75
21838;BME280;11081;45.946;6.140;2024-02-23T10:49:29;93502.63;;;8.26;77.14
21838;BME280;11081;45.946;6.140;2024-02-23T10:51:59;93507.84;;;8.31;76.84
21838;BME280;11081;45.946;6.140;2024-02-23T10:54:29;93510.03;;;8.39;76.78
21838;BME280;11081;45.946;6.140;2024-02-23T10:56:58;93506.41;;;8.40;75.92
21838;BME280;11081;45.946;6.140;2024-02-23T10:59:27;93501.19;;;8.35;75.42
21838;BME280;11081;45.946;6.140;2024-02-23T11:01:56;93508.47;;;8.38;74.96
21838;BME280;11081;45.946;6.140;2024-02-23T11:04:27;93500.72;;;8.43;75.33
21838;BME280;11081;45.946;6.140;2024-02-23T11:06:57;93508.53;;;8.48;75.30
21838;BME280;11081;45.946;6.140;2024-02-23T11:09:31;93512.28;;;8.58;75.27
21838;BME280;11081;45.946;6.140;2024-02-23T11:12:04;93512.84;;;8.65;73.70
21838;BME280;11081;45.946;6.140;2024-02-23T11:14:35;93517.63;;;8.78;73.04
21838;BME280;11081;45.946;6.140;2024-02-23T11:17:04;93511.97;;;8.91;74.07
21838;BME280;11081;45.946;6.140;2024-02-23T11:19:35;93507.81;;;8.90;72.19
21838;BME280;11081;45.946;6.140;2024-02-23T11:22:04;93515.69;;;9.00;72.20
21838;BME280;11081;45.946;6.140;2024-02-23T11:24:43;93505.59;;;9.14;71.77
21838;BME280;11081;45.946;6.140;2024-02-23T11:27:14;93505.13;;;9.17;71.16
21838;BME280;11081;45.946;6.140;2024-02-23T11:29:45;93500.63;;;9.07;70.46
21838;BME280;11081;45.946;6.140;2024-02-23T11:32:14;93497.06;;;9.19;72.40
21838;BME280;11081;45.946;6.140;2024-02-23T11:34:54;93506.44;;;9.25;70.55
21838;BME280;11081;45.946;6.140;2024-02-23T11:37:22;93488.25;;;9.30;69.33
21838;BME280;11081;45.946;6.140;2024-02-23T11:39:50;93495.59;;;9.38;69.54
21838;BME280;11081;45.946;6.140;2024-02-23T11:42:19;93482.53;;;9.33;69.64
21838;BME280;11081;45.946;6.140;2024-02-23T11:44:47;93477.59;;;9.36;68.25
21838;BME280;11081;45.946;6.140;2024-02-23T11:47:15;93474.25;;;9.46;67.42
21838;BME280;11081;45.946;6.140;2024-02-23T11:49:46;93469.31;;;9.44;68.65
21838;BME280;11081;45.946;6.140;2024-02-23T11:52:14;93472.25;;;9.63;69.20
21838;BME280;11081;45.946;6.140;2024-02-23T11:54:44;93468.59;;;9.64;67.61
21838;BME280;11081;45.946;6.140;2024-02-23T11:57:12;93468.53;;;9.54;65.84
21838;BME280;11081;45.946;6.140;2024-02-23T11:59:41;93468.06;;;9.67;67.60
21838;BME280;11081;45.946;6.140;2024-02-23T12:02:09;93464.47;;;9.94;66.55
21838;BME280;11081;45.946;6.140;2024-02-23T12:04:37;93461.56;;;9.75;66.49
21838;BME280;11081;45.946;6.140;2024-02-23T12:07:08;93456.13;;;9.82;66.76
21838;BME280;11081;45.946;6.140;2024-02-23T12:09:36;93456.16;;;9.87;67.05
21838;BME280;11081;45.946;6.140;2024-02-23T12:12:08;93458.22;;;9.85;66.99
21838;BME280;11081;45.946;6.140;2024-02-23T12:14:36;93459.75;;;9.75;63.34
21838;BME280;11081;45.946;6.140;2024-02-23T12:17:04;93444.63;;;9.72;62.82
21838;BME280;11081;45.946;6.140;2024-02-23T12:19:37;93448.84;;;9.89;64.46
21838;BME280;11081;45.946;6.140;2024-02-23T12:22:07;93439.50;;;10.03;63.99
21838;BME280;11081;45.946;6.140;2024-02-23T12:24:37;93431.66;;;9.98;62.91
21838;BME280;11081;45.946;6.140;2024-02-23T12:27:06;93442.59;;;9.85;63.37
21838;BME280;11081;45.946;6.140;2024-02-23T12:29:34;93437.91;;;9.92;63.72
21838;BME280;11081;45.946;6.140;2024-02-23T12:32:03;93437.94;;;10.02;61.32
21838;BME280;11081;45.946;6.140;2024-02-23T12:34:31;93435.06;;;10.14;62.22
21838;BME280;11081;45.946;6.140;2024-02-23T12:37:02;93436.38;;;10.11;61.93
21838;BME280;11081;45.946;6.140;2024-02-23T12:39:31;93428.00;;;9.99;62.89
21838;BME280;11081;45.946;6.140;2024-02-23T12:41:59;93424.88;;;9.87;61.91
21838;BME280;11081;45.946;6.140;2024-02-23T12:44:28;93425.91;;;9.81;61.57
21838;BME280;11081;45.946;6.140;2024-02-23T12:46:56;93420.16;;;9.73;61.07
21838;BME280;11081;45.946;6.140;2024-02-23T12:49:24;93422.25;;;9.71;61.24
21838;BME280;11081;45.946;6.140;2024-02-23T12:51:52;93420.69;;;9.70;59.99
21838;BME280;11081;45.946;6.140;2024-02-23T12:54:20;93414.94;;;9.73;59.73
21838;BME280;11081;45.946;6.140;2024-02-23T12:56:50;93411.88;;;10.02;59.63
21838;BME280;11081;45.946;6.140;2024-02-23T12:59:18;93413.47;;;10.23;58.95
21838;BME280;11081;45.946;6.140;2024-02-23T13:01:46;93410.31;;;10.31;58.45
21838;BME280;11081;45.946;6.140;2024-02-23T13:04:18;93412.94;;;10.26;58.09
21838;BME280;11081;45.946;6.140;2024-02-23T13:06:47;93408.25;;;10.23;57.86
21838;BME280;11081;45.946;6.140;2024-02-23T13:09:15;93413.47;;;10.23;58.60
21838;BME280;11081;45.946;6.140;2024-02-23T13:11:43;93405.63;;;10.28;58.08
21838;BME280;11081;45.946;6.140;2024-02-23T13:14:14;93405.63;;;10.49;57.15
21838;BME280;11081;45.946;6.140;2024-02-23T13:16:43;93404.03;;;10.58;55.17
21838;BME280;11081;45.946;6.140;2024-02-23T13:19:11;93400.41;;;10.33;56.48